sensor_id;sensor_type;location;lat;lon;timestamp;P1;durP1;ratioP1;P2;durP2;ratioP2
73951;SDS011;62304;47.662;18.324;2023-09-08T00:03:01;11.35;;;5.35;;
73951;SDS011;62304;47.662;18.324;2023-09-08T00:06:04;10.50;;;4.82;;
73951;SDS011;62304;47.662;18.324;2023-09-08T00:09:06;11.23;;;5.85;;
73951;SDS011;62304;47.662;18.324;2023-09-08T00:12:10;10.90;;;4.97;;
73951;SDS011;62304;47.662;18.324;2023-09-08T00:15:13;9.17;;;4.80;;
73951;SDS011;62304;47.662;18.324;2023-09-08T00:18:16;10.77;;;4.97;;
73951;SDS011;62304;47.662;18.324;2023-09-08T00:21:19;9.45;;;4.93;;
73951;SDS011;62304;47.662;18.324;2023-09-08T00:24:22;10.63;;;4.93;;
73951;SDS011;62304;47.662;18.324;2023-09-08T00:27:25;10.70;;;5.80;;
73951;SDS011;62304;47.662;18.324;2023-09-08T00:30:28;11.17;;;5.40;;
73951;SDS011;62304;47.662;18.324;2023-09-08T00:33:31;10.43;;;5.32;;
73951;SDS011;62304;47.662;18.324;2023-09-08T00:36:36;9.90;;;5.47;;
73951;SDS011;62304;47.662;18.324;2023-09-08T00:39:39;10.20;;;5.03;;
73951;SDS011;62304;47.662;18.324;2023-09-08T00:42:42;10.70;;;5.40;;
73951;SDS011;62304;47.662;18.324;2023-09-08T00:45:45;11.90;;;5.63;;
73951;SDS011;62304;47.662;18.324;2023-09-08T00:48:48;11.52;;;5.53;;
73951;SDS011;62304;47.662;18.324;2023-09-08T00:51:51;11.60;;;5.90;;
73951;SDS011;62304;47.662;18.324;2023-09-08T00:54:55;13.27;;;6.60;;
73951;SDS011;62304;47.662;18.324;2023-09-08T00:57:58;11.83;;;6.40;;
73951;SDS011;62304;47.662;18.324;2023-09-08T01:01:02;10.90;;;5.63;;
73951;SDS011;62304;47.662;18.324;2023-09-08T01:04:05;10.10;;;5.70;;
73951;SDS011;62304;47.662;18.324;2023-09-08T01:07:08;12.98;;;6.03;;
73951;SDS011;62304;47.662;18.324;2023-09-08T01:10:14;11.55;;;5.75;;
73951;SDS011;62304;47.662;18.324;2023-09-08T01:13:18;10.87;;;5.60;;
73951;SDS011;62304;47.662;18.324;2023-09-08T01:16:21;12.13;;;5.97;;
73951;SDS011;62304;47.662;18.324;2023-09-08T01:19:24;13.00;;;5.72;;
73951;SDS011;62304;47.662;18.324;2023-09-08T01:22:41;12.48;;;6.00;;
73951;SDS011;62304;47.662;18.324;2023-09-08T01:26:10;11.57;;;6.12;;
73951;SDS011;62304;47.662;18.324;2023-09-08T01:29:16;13.97;;;6.43;;
73951;SDS011;62304;47.662;18.324;2023-09-08T01:32:20;11.83;;;6.33;;
73951;SDS011;62304;47.662;18.324;2023-09-08T01:35:23;13.00;;;6.45;;
73951;SDS011;62304;47.662;18.324;2023-09-08T01:38:27;13.02;;;6.07;;
73951;SDS011;62304;47.662;18.324;2023-09-08T01:41:30;11.63;;;6.47;;
73951;SDS011;62304;47.662;18.324;2023-09-08T01:44:36;13.57;;;6.27;;
73951;SDS011;62304;47.662;18.324;2023-09-08T01:47:39;11.13;;;6.07;;
73951;SDS011;62304;47.662;18.324;2023-09-08T01:50:42;11.45;;;6.00;;
73951;SDS011;62304;47.662;18.324;2023-09-08T01:53:47;11.50;;;6.10;;
73951;SDS011;62304;47.662;18.324;2023-09-08T01:56:50;12.15;;;6.03;;
73951;SDS011;62304;47.662;18.324;2023-09-08T01:59:53;12.33;;;6.63;;
73951;SDS011;62304;47.662;18.324;2023-09-08T02:02:56;14.13;;;5.90;;
73951;SDS011;62304;47.662;18.324;2023-09-08T02:06:00;11.55;;;6.12;;
73951;SDS011;62304;47.662;18.324;2023-09-08T02:09:02;12.85;;;6.62;;
73951;SDS011;62304;47.662;18.324;2023-09-08T02:12:06;15.57;;;5.87;;
73951;SDS011;62304;47.662;18.324;2023-09-08T02:15:09;10.97;;;5.97;;
73951;SDS011;62304;47.662;18.324;2023-09-08T02:18:14;13.40;;;6.43;;
73951;SDS011;62304;47.662;18.324;2023-09-08T02:21:17;12.73;;;6.93;;
73951;SDS011;62304;47.662;18.324;2023-09-08T02:24:20;12.30;;;6.45;;
73951;SDS011;62304;47.662;18.324;2023-09-08T02:27:23;14.52;;;6.05;;
73951;SDS011;62304;47.662;18.324;2023-09-08T02:30:26;14.63;;;6.90;;
73951;SDS011;62304;47.662;18.324;2023-09-08T02:33:29;11.83;;;6.43;;
73951;SDS011;62304;47.662;18.324;2023-09-08T02:36:32;13.90;;;7.03;;
73951;SDS011;62304;47.662;18.324;2023-09-08T02:39:36;15.85;;;7.00;;
73951;SDS011;62304;47.662;18.324;2023-09-08T02:42:39;13.43;;;6.90;;
73951;SDS011;62304;47.662;18.324;2023-09-08T02:45:43;11.33;;;6.17;;
73951;SDS011;62304;47.662;18.324;2023-09-08T02:48:49;10.33;;;5.87;;
73951;SDS011;62304;47.662;18.324;2023-09-08T02:51:53;12.18;;;6.18;;
73951;SDS011;62304;47.662;18.324;2023-09-08T02:54:56;16.45;;;6.78;;
73951;SDS011;62304;47.662;18.324;2023-09-08T02:57:59;12.95;;;6.35;;
73951;SDS011;62304;47.662;18.324;2023-09-08T03:01:09;14.10;;;6.43;;
73951;SDS011;62304;47.662;18.324;2023-09-08T03:04:17;15.43;;;7.33;;
73951;SDS011;62304;47.662;18.324;2023-09-08T03:07:20;13.68;;;6.82;;
73951;SDS011;62304;47.662;18.324;2023-09-08T03:10:23;15.27;;;7.10;;
73951;SDS011;62304;47.662;18.324;2023-09-08T03:13:26;19.87;;;8.35;;
73951;SDS011;62304;47.662;18.324;2023-09-08T03:16:31;17.67;;;7.10;;
73951;SDS011;62304;47.662;18.324;2023-09-08T03:19:34;15.40;;;7.17;;
73951;SDS011;62304;47.662;18.324;2023-09-08T03:22:38;13.45;;;7.10;;
73951;SDS011;62304;47.662;18.324;2023-09-08T03:25:42;18.83;;;7.53;;
73951;SDS011;62304;47.662;18.324;2023-09-08T03:28:45;15.23;;;6.90;;
73951;SDS011;62304;47.662;18.324;2023-09-08T03:31:48;14.40;;;7.73;;
73951;SDS011;62304;47.662;18.324;2023-09-08T03:34:51;11.93;;;6.73;;
73951;SDS011;62304;47.662;18.324;2023-09-08T03:37:54;13.27;;;6.43;;
73951;SDS011;62304;47.662;18.324;2023-09-08T03:40:57;16.35;;;6.87;;
73951;SDS011;62304;47.662;18.324;2023-09-08T03:44:00;14.38;;;6.82;;
73951;SDS011;62304;47.662;18.324;2023-09-08T03:47:03;13.47;;;6.93;;
73951;SDS011;62304;47.662;18.324;2023-09-08T03:50:06;14.00;;;7.00;;
73951;SDS011;62304;47.662;18.324;2023-09-08T03:53:11;13.62;;;7.30;;
73951;SDS011;62304;47.662;18.324;2023-09-08T03:56:14;18.55;;;6.97;;
73951;SDS011;62304;47.662;18.324;2023-09-08T03:59:17;15.63;;;6.95;;
73951;SDS011;62304;47.662;18.324;2023-09-08T04:02:20;12.97;;;6.33;;
73951;SDS011;62304;47.662;18.324;2023-09-08T04:05:24;13.13;;;7.00;;
73951;SDS011;62304;47.662;18.324;2023-09-08T04:08:27;16.20;;;7.37;;
73951;SDS011;62304;47.662;18.324;2023-09-08T04:11:30;19.98;;;7.57;;
73951;SDS011;62304;47.662;18.324;2023-09-08T04:14:33;17.05;;;7.60;;
73951;SDS011;62304;47.662;18.324;2023-09-08T04:17:37;15.07;;;6.97;;
73951;SDS011;62304;47.662;18.324;2023-09-08T04:20:41;16.63;;;7.53;;
73951;SDS011;62304;47.662;18.324;2023-09-08T04:23:44;16.62;;;7.85;;
73951;SDS011;62304;47.662;18.324;2023-09-08T04:26:47;16.42;;;8.50;;
73951;SDS011;62304;47.662;18.324;2023-09-08T04:29:50;16.77;;;7.68;;
73951;SDS011;62304;47.662;18.324;2023-09-08T04:32:53;16.70;;;8.03;;
73951;SDS011;62304;47.662;18.324;2023-09-08T04:35:57;18.33;;;7.83;;
73951;SDS011;62304;47.662;18.324;2023-09-08T04:39:00;19.30;;;8.40;;
73951;SDS011;62304;47.662;18.324;2023-09-08T04:42:03;16.50;;;7.55;;
73951;SDS011;62304;47.662;18.324;2023-09-08T04:45:06;15.32;;;7.25;;
73951;SDS011;62304;47.662;18.324;2023-09-08T04:48:11;19.87;;;8.20;;
73951;SDS011;62304;47.662;18.324;2023-09-08T04:51:14;15.00;;;7.30;;
73951;SDS011;62304;47.662;18.324;2023-09-08T04:54:18;16.65;;;7.80;;
73951;SDS011;62304;47.662;18.324;2023-09-08T04:57:22;16.75;;;7.57;;
73951;SDS011;62304;47.662;18.324;2023-09-08T05:00:26;17.50;;;7.18;;
73951;SDS011;62304;47.662;18.324;2023-09-08T05:03:30;16.27;;;7.57;;
73951;SDS011;62304;47.662;18.324;2023-09-08T05:06:34;15.80;;;7.40;;
73951;SDS011;62304;47.662;18.324;2023-09-08T05:09:37;15.40;;;7.47;;
73951;SDS011;62304;47.662;18.324;2023-09-08T05:12:41;14.35;;;7.10;;
73951;SDS011;62304;47.662;18.324;2023-09-08T05:15:44;13.40;;;7.30;;
73951;SDS011;62304;47.662;18.324;2023-09-08T05:18:51;13.60;;;7.10;;
73951;SDS011;62304;47.662;18.324;2023-09-08T05:21:54;12.40;;;6.50;;
73951;SDS011;62304;47.662;18.324;2023-09-08T05:24:58;12.20;;;6.43;;
73951;SDS011;62304;47.662;18.324;2023-09-08T05:28:01;13.43;;;7.75;;
73951;SDS011;62304;47.662;18.324;2023-09-08T05:31:05;20.23;;;7.70;;
73951;SDS011;62304;47.662;18.324;2023-09-08T05:34:09;14.77;;;6.93;;
73951;SDS011;62304;47.662;18.324;2023-09-08T05:37:13;14.80;;;7.37;;
73951;SDS011;62304;47.662;18.324;2023-09-08T05:40:18;14.05;;;7.18;;
73951;SDS011;62304;47.662;18.324;2023-09-08T05:43:24;15.32;;;8.23;;
73951;SDS011;62304;47.662;18.324;2023-09-08T05:46:28;16.02;;;8.15;;
73951;SDS011;62304;47.662;18.324;2023-09-08T05:49:32;13.87;;;7.07;;
73951;SDS011;62304;47.662;18.324;2023-09-08T05:52:40;18.73;;;7.80;;
73951;SDS011;62304;47.662;18.324;2023-09-08T05:55:43;17.37;;;7.30;;
73951;SDS011;62304;47.662;18.324;2023-09-08T05:58:46;15.25;;;7.80;;
73951;SDS011;62304;47.662;18.324;2023-09-08T06:01:50;19.10;;;7.85;;
73951;SDS011;62304;47.662;18.324;2023-09-08T06:04:53;18.90;;;7.67;;
73951;SDS011;62304;47.662;18.324;2023-09-08T06:07:56;18.10;;;6.90;;
73951;SDS011;62304;47.662;18.324;2023-09-08T06:11:09;17.37;;;7.87;;
73951;SDS011;62304;47.662;18.324;2023-09-08T06:14:12;18.23;;;7.20;;
73951;SDS011;62304;47.662;18.324;2023-09-08T06:17:15;14.77;;;7.03;;
73951;SDS011;62304;47.662;18.324;2023-09-08T06:20:18;13.80;;;6.53;;
73951;SDS011;62304;47.662;18.324;2023-09-08T06:23:22;19.20;;;7.00;;
73951;SDS011;62304;47.662;18.324;2023-09-08T06:26:26;15.70;;;6.40;;
73951;SDS011;62304;47.662;18.324;2023-09-08T06:29:30;16.00;;;6.78;;
73951;SDS011;62304;47.662;18.324;2023-09-08T06:32:33;16.20;;;6.22;;
73951;SDS011;62304;47.662;18.324;2023-09-08T06:35:36;20.40;;;6.87;;
73951;SDS011;62304;47.662;18.324;2023-09-08T06:38:39;13.03;;;6.57;;
73951;SDS011;62304;47.662;18.324;2023-09-08T06:41:44;17.00;;;6.40;;
73951;SDS011;62304;47.662;18.324;2023-09-08T06:44:48;12.43;;;6.15;;
73951;SDS011;62304;47.662;18.324;2023-09-08T06:47:52;20.17;;;6.50;;
73951;SDS011;62304;47.662;18.324;2023-09-08T06:50:58;14.77;;;6.07;;
73951;SDS011;62304;47.662;18.324;2023-09-08T06:54:02;13.63;;;6.20;;
73951;SDS011;62304;47.662;18.324;2023-09-08T06:57:06;14.60;;;5.93;;
73951;SDS011;62304;47.662;18.324;2023-09-08T07:00:10;12.45;;;6.47;;
73951;SDS011;62304;47.662;18.324;2023-09-08T07:03:14;13.38;;;7.05;;
73951;SDS011;62304;47.662;18.324;2023-09-08T07:06:17;12.97;;;6.23;;
73951;SDS011;62304;47.662;18.324;2023-09-08T07:09:20;11.93;;;5.67;;
73951;SDS011;62304;47.662;18.324;2023-09-08T07:12:24;14.27;;;6.05;;
73951;SDS011;62304;47.662;18.324;2023-09-08T07:15:26;11.77;;;5.97;;
73951;SDS011;62304;47.662;18.324;2023-09-08T07:18:30;15.73;;;6.70;;
73951;SDS011;62304;47.662;18.324;2023-09-08T07:21:37;12.03;;;5.47;;
73951;SDS011;62304;47.662;18.324;2023-09-08T07:24:40;10.93;;;5.90;;
73951;SDS011;62304;47.662;18.324;2023-09-08T07:27:43;13.02;;;5.68;;
73951;SDS011;62304;47.662;18.324;2023-09-08T07:30:47;10.25;;;5.30;;
73951;SDS011;62304;47.662;18.324;2023-09-08T07:33:51;12.60;;;5.68;;
73951;SDS011;62304;47.662;18.324;2023-09-08T07:36:54;12.70;;;5.60;;
73951;SDS011;62304;47.662;18.324;2023-09-08T07:39:57;8.97;;;5.80;;
73951;SDS011;62304;47.662;18.324;2023-09-08T07:43:01;12.55;;;5.90;;
73951;SDS011;62304;47.662;18.324;2023-09-08T07:46:05;7.93;;;5.37;;
73951;SDS011;62304;47.662;18.324;2023-09-08T07:49:08;10.73;;;5.97;;
73951;SDS011;62304;47.662;18.324;2023-09-08T07:52:11;11.90;;;6.10;;
73951;SDS011;62304;47.662;18.324;2023-09-08T07:55:15;10.43;;;6.00;;
73951;SDS011;62304;47.662;18.324;2023-09-08T07:58:18;16.15;;;6.75;;
73951;SDS011;62304;47.662;18.324;2023-09-08T08:01:21;13.43;;;6.03;;
73951;SDS011;62304;47.662;18.324;2023-09-08T08:04:25;10.00;;;6.32;;
73951;SDS011;62304;47.662;18.324;2023-09-08T08:07:29;7.83;;;5.53;;
73951;SDS011;62304;47.662;18.324;2023-09-08T08:19:17;10.60;;;5.80;;
73951;SDS011;62304;47.662;18.324;2023-09-08T08:22:21;9.30;;;6.25;;
73951;SDS011;62304;47.662;18.324;2023-09-08T08:25:24;9.40;;;6.00;;
73951;SDS011;62304;47.662;18.324;2023-09-08T08:28:27;11.37;;;5.43;;
73951;SDS011;62304;47.662;18.324;2023-09-08T08:31:31;9.52;;;5.40;;
73951;SDS011;62304;47.662;18.324;2023-09-08T08:34:36;9.55;;;5.62;;
73951;SDS011;62304;47.662;18.324;2023-09-08T08:37:39;8.75;;;5.85;;
73951;SDS011;62304;47.662;18.324;2023-09-08T08:40:43;8.20;;;5.57;;
73951;SDS011;62304;47.662;18.324;2023-09-08T08:43:46;9.83;;;6.17;;
73951;SDS011;62304;47.662;18.324;2023-09-08T08:46:53;8.70;;;5.60;;
73951;SDS011;62304;47.662;18.324;2023-09-08T08:49:58;9.68;;;6.07;;
73951;SDS011;62304;47.662;18.324;2023-09-08T08:53:02;9.93;;;5.85;;
73951;SDS011;62304;47.662;18.324;2023-09-08T08:56:05;10.23;;;5.70;;
73951;SDS011;62304;47.662;18.324;2023-09-08T08:59:11;10.00;;;5.87;;
73951;SDS011;62304;47.662;18.324;2023-09-08T09:02:15;10.40;;;5.90;;
73951;SDS011;62304;47.662;18.324;2023-09-08T09:05:18;7.97;;;5.60;;
73951;SDS011;62304;47.662;18.324;2023-09-08T09:08:21;9.68;;;6.05;;
73951;SDS011;62304;47.662;18.324;2023-09-08T09:11:26;11.37;;;5.80;;
73951;SDS011;62304;47.662;18.324;2023-09-08T09:14:32;14.13;;;7.57;;
73951;SDS011;62304;47.662;18.324;2023-09-08T09:17:36;10.00;;;5.70;;
73951;SDS011;62304;47.662;18.324;2023-09-08T09:20:40;8.25;;;5.35;;
73951;SDS011;62304;47.662;18.324;2023-09-08T09:23:44;10.65;;;5.65;;
73951;SDS011;62304;47.662;18.324;2023-09-08T09:26:51;7.20;;;5.20;;
73951;SDS011;62304;47.662;18.324;2023-09-08T09:29:55;42.37;;;7.67;;
73951;SDS011;62304;47.662;18.324;2023-09-08T09:33:01;11.98;;;5.45;;
73951;SDS011;62304;47.662;18.324;2023-09-08T09:36:05;10.18;;;5.32;;
73951;SDS011;62304;47.662;18.324;2023-09-08T09:39:09;7.75;;;5.22;;
73951;SDS011;62304;47.662;18.324;2023-09-08T09:42:12;7.40;;;5.20;;
73951;SDS011;62304;47.662;18.324;2023-09-08T09:45:18;7.40;;;5.00;;
73951;SDS011;62304;47.662;18.324;2023-09-08T09:48:21;8.57;;;5.65;;
73951;SDS011;62304;47.662;18.324;2023-09-08T09:51:26;7.60;;;4.57;;
73951;SDS011;62304;47.662;18.324;2023-09-08T09:54:29;7.30;;;4.87;;
73951;SDS011;62304;47.662;18.324;2023-09-08T09:57:32;7.73;;;4.93;;
73951;SDS011;62304;47.662;18.324;2023-09-08T10:00:36;6.13;;;4.67;;
73951;SDS011;62304;47.662;18.324;2023-09-08T10:03:40;7.57;;;4.60;;
73951;SDS011;62304;47.662;18.324;2023-09-08T10:06:43;10.27;;;5.00;;
73951;SDS011;62304;47.662;18.324;2023-09-08T10:09:47;8.77;;;5.22;;
73951;SDS011;62304;47.662;18.324;2023-09-08T10:12:53;7.10;;;5.00;;
73951;SDS011;62304;47.662;18.324;2023-09-08T10:16:00;10.37;;;4.97;;
73951;SDS011;62304;47.662;18.324;2023-09-08T10:19:06;7.10;;;4.60;;
73951;SDS011;62304;47.662;18.324;2023-09-08T10:22:11;6.65;;;4.97;;
73951;SDS011;62304;47.662;18.324;2023-09-08T10:25:18;7.35;;;5.00;;
73951;SDS011;62304;47.662;18.324;2023-09-08T10:28:24;7.93;;;5.10;;
73951;SDS011;62304;47.662;18.324;2023-09-08T10:31:27;9.97;;;5.30;;
73951;SDS011;62304;47.662;18.324;2023-09-08T10:34:32;7.28;;;4.60;;
73951;SDS011;62304;47.662;18.324;2023-09-08T10:37:37;9.52;;;5.43;;
73951;SDS011;62304;47.662;18.324;2023-09-08T10:40:43;7.82;;;4.87;;
73951;SDS011;62304;47.662;18.324;2023-09-08T10:43:46;8.63;;;5.40;;
73951;SDS011;62304;47.662;18.324;2023-09-08T10:46:57;12.43;;;5.10;;
73951;SDS011;62304;47.662;18.324;2023-09-08T10:50:00;9.18;;;5.28;;
73951;SDS011;62304;47.662;18.324;2023-09-08T10:53:10;7.18;;;4.85;;
73951;SDS011;62304;47.662;18.324;2023-09-08T10:56:16;8.35;;;5.37;;
73951;SDS011;62304;47.662;18.324;2023-09-08T10:59:22;6.50;;;4.67;;
73951;SDS011;62304;47.662;18.324;2023-09-08T11:05:41;9.15;;;5.22;;
73951;SDS011;62304;47.662;18.324;2023-09-08T11:08:45;8.15;;;4.68;;
73951;SDS011;62304;47.662;18.324;2023-09-08T11:11:50;10.98;;;6.15;;
73951;SDS011;62304;47.662;18.324;2023-09-08T11:14:53;7.57;;;4.97;;
73951;SDS011;62304;47.662;18.324;2023-09-08T11:17:57;10.60;;;4.77;;
73951;SDS011;62304;47.662;18.324;2023-09-08T11:21:08;9.93;;;5.10;;
73951;SDS011;62304;47.662;18.324;2023-09-08T11:24:12;7.78;;;5.00;;
73951;SDS011;62304;47.662;18.324;2023-09-08T11:27:17;5.87;;;4.43;;
73951;SDS011;62304;47.662;18.324;2023-09-08T11:30:20;7.00;;;4.73;;
73951;SDS011;62304;47.662;18.324;2023-09-08T11:33:23;7.87;;;5.53;;
73951;SDS011;62304;47.662;18.324;2023-09-08T11:36:28;7.80;;;5.10;;
73951;SDS011;62304;47.662;18.324;2023-09-08T11:39:35;8.27;;;4.47;;
73951;SDS011;62304;47.662;18.324;2023-09-08T11:42:40;7.12;;;5.00;;
73951;SDS011;62304;47.662;18.324;2023-09-08T11:45:48;7.40;;;4.70;;
73951;SDS011;62304;47.662;18.324;2023-09-08T11:48:51;7.00;;;5.03;;
73951;SDS011;62304;47.662;18.324;2023-09-08T11:51:55;8.07;;;5.20;;
73951;SDS011;62304;47.662;18.324;2023-09-08T11:54:58;8.05;;;4.62;;
73951;SDS011;62304;47.662;18.324;2023-09-08T11:58:08;7.53;;;5.07;;
73951;SDS011;62304;47.662;18.324;2023-09-08T12:01:12;8.60;;;5.83;;
73951;SDS011;62304;47.662;18.324;2023-09-08T12:04:17;8.17;;;5.33;;
73951;SDS011;62304;47.662;18.324;2023-09-08T12:07:22;8.07;;;5.07;;
73951;SDS011;62304;47.662;18.324;2023-09-08T12:10:25;11.35;;;5.87;;
73951;SDS011;62304;47.662;18.324;2023-09-08T12:13:28;9.43;;;4.90;;
73951;SDS011;62304;47.662;18.324;2023-09-08T12:16:31;7.67;;;5.33;;
73951;SDS011;62304;47.662;18.324;2023-09-08T12:19:35;8.33;;;5.67;;
73951;SDS011;62304;47.662;18.324;2023-09-08T12:22:50;8.80;;;5.53;;
73951;SDS011;62304;47.662;18.324;2023-09-08T12:25:53;10.27;;;6.60;;
73951;SDS011;62304;47.662;18.324;2023-09-08T12:29:00;10.07;;;5.37;;
73951;SDS011;62304;47.662;18.324;2023-09-08T12:32:03;7.20;;;4.87;;
73951;SDS011;62304;47.662;18.324;2023-09-08T12:35:06;8.70;;;5.40;;
73951;SDS011;62304;47.662;18.324;2023-09-08T12:38:10;7.75;;;5.32;;
73951;SDS011;62304;47.662;18.324;2023-09-08T12:41:13;7.60;;;5.05;;
73951;SDS011;62304;47.662;18.324;2023-09-08T12:44:16;7.53;;;5.12;;
73951;SDS011;62304;47.662;18.324;2023-09-08T12:47:19;7.73;;;4.87;;
73951;SDS011;62304;47.662;18.324;2023-09-08T12:50:22;7.77;;;5.43;;
73951;SDS011;62304;47.662;18.324;2023-09-08T12:53:25;8.93;;;4.75;;
73951;SDS011;62304;47.662;18.324;2023-09-08T12:56:28;9.95;;;4.97;;
73951;SDS011;62304;47.662;18.324;2023-09-08T12:59:31;6.10;;;4.95;;
73951;SDS011;62304;47.662;18.324;2023-09-08T13:02:34;9.80;;;5.73;;
73951;SDS011;62304;47.662;18.324;2023-09-08T13:05:37;12.67;;;5.70;;
73951;SDS011;62304;47.662;18.324;2023-09-08T13:08:41;6.95;;;4.75;;
73951;SDS011;62304;47.662;18.324;2023-09-08T13:11:45;9.02;;;5.00;;
73951;SDS011;62304;47.662;18.324;2023-09-08T13:14:48;6.65;;;5.12;;
73951;SDS011;62304;47.662;18.324;2023-09-08T13:17:52;8.00;;;5.27;;
73951;SDS011;62304;47.662;18.324;2023-09-08T13:20:55;13.83;;;4.73;;
73951;SDS011;62304;47.662;18.324;2023-09-08T13:23:58;7.97;;;4.82;;
73951;SDS011;62304;47.662;18.324;2023-09-08T13:27:02;11.27;;;4.90;;
73951;SDS011;62304;47.662;18.324;2023-09-08T13:30:09;6.78;;;4.90;;
73951;SDS011;62304;47.662;18.324;2023-09-08T13:33:14;10.07;;;5.00;;
73951;SDS011;62304;47.662;18.324;2023-09-08T13:36:19;7.43;;;5.20;;
73951;SDS011;62304;47.662;18.324;2023-09-08T13:39:22;8.40;;;5.53;;
73951;SDS011;62304;47.662;18.324;2023-09-08T13:42:26;7.15;;;4.78;;
73951;SDS011;62304;47.662;18.324;2023-09-08T13:45:30;7.25;;;5.32;;
73951;SDS011;62304;47.662;18.324;2023-09-08T13:48:34;7.67;;;4.63;;
73951;SDS011;62304;47.662;18.324;2023-09-08T13:51:38;6.90;;;4.80;;
73951;SDS011;62304;47.662;18.324;2023-09-08T13:54:44;7.50;;;5.00;;
73951;SDS011;62304;47.662;18.324;2023-09-08T13:57:47;8.50;;;5.80;;
73951;SDS011;62304;47.662;18.324;2023-09-08T14:00:58;11.00;;;5.32;;
73951;SDS011;62304;47.662;18.324;2023-09-08T14:04:03;13.93;;;5.17;;
73951;SDS011;62304;47.662;18.324;2023-09-08T14:07:13;6.50;;;4.87;;
73951;SDS011;62304;47.662;18.324;2023-09-08T14:10:20;7.07;;;5.10;;
73951;SDS011;62304;47.662;18.324;2023-09-08T14:13:27;7.40;;;5.20;;
73951;SDS011;62304;47.662;18.324;2023-09-08T14:16:31;13.45;;;5.50;;
73951;SDS011;62304;47.662;18.324;2023-09-08T14:19:35;10.10;;;5.30;;
73951;SDS011;62304;47.662;18.324;2023-09-08T14:22:40;9.87;;;5.10;;
73951;SDS011;62304;47.662;18.324;2023-09-08T14:25:43;8.00;;;5.15;;
73951;SDS011;62304;47.662;18.324;2023-09-08T14:28:47;12.15;;;5.40;;
73951;SDS011;62304;47.662;18.324;2023-09-08T14:31:52;9.82;;;5.68;;
73951;SDS011;62304;47.662;18.324;2023-09-08T14:34:55;9.13;;;5.80;;
73951;SDS011;62304;47.662;18.324;2023-09-08T14:38:00;6.73;;;4.70;;
73951;SDS011;62304;47.662;18.324;2023-09-08T14:41:04;8.82;;;5.30;;
73951;SDS011;62304;47.662;18.324;2023-09-08T14:44:07;6.80;;;4.87;;
73951;SDS011;62304;47.662;18.324;2023-09-08T14:47:11;8.07;;;5.20;;
73951;SDS011;62304;47.662;18.324;2023-09-08T14:50:15;8.37;;;5.03;;
73951;SDS011;62304;47.662;18.324;2023-09-08T14:56:53;8.20;;;5.20;;
73951;SDS011;62304;47.662;18.324;2023-09-08T14:59:58;7.87;;;4.93;;
73951;SDS011;62304;47.662;18.324;2023-09-08T15:06:49;8.93;;;4.60;;
73951;SDS011;62304;47.662;18.324;2023-09-08T15:09:54;7.40;;;4.70;;
73951;SDS011;62304;47.662;18.324;2023-09-08T15:12:57;7.85;;;4.85;;
73951;SDS011;62304;47.662;18.324;2023-09-08T15:16:02;8.85;;;4.60;;
73951;SDS011;62304;47.662;18.324;2023-09-08T15:19:06;8.63;;;5.12;;
73951;SDS011;62304;47.662;18.324;2023-09-08T15:22:11;7.33;;;4.77;;
73951;SDS011;62304;47.662;18.324;2023-09-08T15:25:16;8.47;;;5.47;;
73951;SDS011;62304;47.662;18.324;2023-09-08T15:28:23;7.35;;;4.80;;
73951;SDS011;62304;47.662;18.324;2023-09-08T15:31:27;8.77;;;4.60;;
73951;SDS011;62304;47.662;18.324;2023-09-08T15:34:31;6.82;;;4.25;;
73951;SDS011;62304;47.662;18.324;2023-09-08T15:37:35;11.53;;;4.60;;
73951;SDS011;62304;47.662;18.324;2023-09-08T15:41:12;10.00;;;4.67;;
73951;SDS011;62304;47.662;18.324;2023-09-08T15:44:20;7.75;;;4.60;;
73951;SDS011;62304;47.662;18.324;2023-09-08T15:47:24;7.50;;;4.35;;
73951;SDS011;62304;47.662;18.324;2023-09-08T15:50:28;13.25;;;4.40;;
73951;SDS011;62304;47.662;18.324;2023-09-08T15:53:32;8.47;;;4.27;;
73951;SDS011;62304;47.662;18.324;2023-09-08T16:00:22;7.75;;;4.20;;
73951;SDS011;62304;47.662;18.324;2023-09-08T16:03:28;8.73;;;4.50;;
73951;SDS011;62304;47.662;18.324;2023-09-08T16:06:32;9.80;;;4.03;;
73951;SDS011;62304;47.662;18.324;2023-09-08T16:09:37;7.13;;;4.00;;
73951;SDS011;62304;47.662;18.324;2023-09-08T16:12:41;12.17;;;5.63;;
73951;SDS011;62304;47.662;18.324;2023-09-08T16:15:53;14.68;;;5.57;;
73951;SDS011;62304;47.662;18.324;2023-09-08T16:19:00;17.17;;;6.75;;
73951;SDS011;62304;47.662;18.324;2023-09-08T16:22:07;19.10;;;7.57;;
73951;SDS011;62304;47.662;18.324;2023-09-08T16:25:14;19.30;;;10.00;;
73951;SDS011;62304;47.662;18.324;2023-09-08T16:28:19;21.70;;;10.67;;
73951;SDS011;62304;47.662;18.324;2023-09-08T16:31:25;18.27;;;10.13;;
73951;SDS011;62304;47.662;18.324;2023-09-08T16:34:30;14.25;;;7.93;;
73951;SDS011;62304;47.662;18.324;2023-09-08T16:37:34;16.98;;;6.80;;
73951;SDS011;62304;47.662;18.324;2023-09-08T16:40:39;12.87;;;5.80;;
73951;SDS011;62304;47.662;18.324;2023-09-08T16:43:42;12.50;;;5.20;;
73951;SDS011;62304;47.662;18.324;2023-09-08T16:46:47;15.52;;;5.47;;
73951;SDS011;62304;47.662;18.324;2023-09-08T16:49:51;15.35;;;5.12;;
73951;SDS011;62304;47.662;18.324;2023-09-08T16:52:57;13.57;;;5.10;;
73951;SDS011;62304;47.662;18.324;2023-09-08T16:56:01;10.30;;;4.57;;
73951;SDS011;62304;47.662;18.324;2023-09-08T16:59:11;14.80;;;4.97;;
73951;SDS011;62304;47.662;18.324;2023-09-08T17:10:01;9.95;;;4.60;;
73951;SDS011;62304;47.662;18.324;2023-09-08T17:32:59;38.80;;;16.37;;
73951;SDS011;62304;47.662;18.324;2023-09-08T17:36:03;38.50;;;15.27;;
73951;SDS011;62304;47.662;18.324;2023-09-08T17:39:07;36.22;;;15.10;;
73951;SDS011;62304;47.662;18.324;2023-09-08T17:42:12;30.27;;;12.48;;
73951;SDS011;62304;47.662;18.324;2023-09-08T17:45:16;25.17;;;12.05;;
73951;SDS011;62304;47.662;18.324;2023-09-08T17:48:20;22.03;;;10.47;;
73951;SDS011;62304;47.662;18.324;2023-09-08T17:51:25;21.90;;;9.60;;
73951;SDS011;62304;47.662;18.324;2023-09-08T17:54:29;23.23;;;9.98;;
73951;SDS011;62304;47.662;18.324;2023-09-08T17:57:35;17.65;;;8.80;;
73951;SDS011;62304;47.662;18.324;2023-09-08T18:00:40;16.50;;;8.40;;
73951;SDS011;62304;47.662;18.324;2023-09-08T18:03:48;15.17;;;7.77;;
73951;SDS011;62304;47.662;18.324;2023-09-08T18:06:51;14.00;;;8.20;;
73951;SDS011;62304;47.662;18.324;2023-09-08T18:09:54;14.60;;;7.45;;
73951;SDS011;62304;47.662;18.324;2023-09-08T18:12:58;15.32;;;7.12;;
73951;SDS011;62304;47.662;18.324;2023-09-08T18:16:02;14.38;;;6.35;;
73951;SDS011;62304;47.662;18.324;2023-09-08T18:19:07;13.53;;;6.87;;
73951;SDS011;62304;47.662;18.324;2023-09-08T18:22:11;15.27;;;6.43;;
73951;SDS011;62304;47.662;18.324;2023-09-08T18:25:15;16.30;;;6.70;;
73951;SDS011;62304;47.662;18.324;2023-09-08T18:28:18;12.82;;;5.75;;
73951;SDS011;62304;47.662;18.324;2023-09-08T18:31:22;15.38;;;5.43;;
73951;SDS011;62304;47.662;18.324;2023-09-08T18:34:28;17.93;;;6.03;;
73951;SDS011;62304;47.662;18.324;2023-09-08T18:37:33;10.13;;;5.53;;
73951;SDS011;62304;47.662;18.324;2023-09-08T18:40:44;12.13;;;5.82;;
73951;SDS011;62304;47.662;18.324;2023-09-08T18:43:48;13.73;;;5.97;;
73951;SDS011;62304;47.662;18.324;2023-09-08T18:46:52;13.25;;;5.90;;
73951;SDS011;62304;47.662;18.324;2023-09-08T18:49:55;11.47;;;6.10;;
73951;SDS011;62304;47.662;18.324;2023-09-08T18:53:00;11.70;;;5.83;;
73951;SDS011;62304;47.662;18.324;2023-09-08T18:56:05;10.40;;;5.87;;